createdAt,value
2019-04-22T00:02:00.518Z,18.10
2019-04-22T00:04:42.167Z,17.53
2019-04-22T00:07:22.740Z,18.13
2019-04-22T00:09:59.471Z,19.03
2019-04-22T00:12:27.588Z,18.63
2019-04-22T00:14:52.487Z,18.33
2019-04-22T00:17:38.703Z,18.47
2019-04-22T00:20:06.122Z,17.83
2019-04-22T00:22:35.136Z,18.57
2019-04-22T00:25:10.466Z,19.17
2019-04-22T00:27:40.724Z,19.17
2019-04-22T00:30:15.504Z,20.33
2019-04-22T00:32:50.009Z,18.80
2019-04-22T00:35:18.173Z,18.57
2019-04-22T00:37:56.996Z,18.97
2019-04-22T00:40:28.181Z,18.83
2019-04-22T00:45:36.795Z,19.83
2019-04-22T00:48:00.888Z,19.13
2019-04-22T00:50:37.463Z,18.57
2019-04-22T00:53:11.950Z,19.53
2019-04-22T00:55:38.095Z,19.50
2019-04-22T00:58:14.201Z,19.13
2019-04-22T01:00:44.412Z,18.83
2019-04-22T01:03:21.478Z,18.60
2019-04-22T01:05:46.855Z,18.90
2019-04-22T01:08:26.696Z,18.83
2019-04-22T01:10:57.019Z,18.87
2019-04-22T01:13:24.760Z,18.60
2019-04-22T01:16:03.195Z,18.73
2019-04-22T01:18:25.081Z,18.93
2019-04-22T01:23:28.192Z,19.43
2019-04-22T01:25:57.058Z,19.20
2019-04-22T01:28:23.915Z,19.67
2019-04-22T01:30:51.439Z,19.33
2019-04-22T01:33:23.261Z,19.40
2019-04-22T01:36:02.728Z,19.20
2019-04-22T01:38:36.692Z,20.00
2019-04-22T01:41:16.475Z,19.10
2019-04-22T01:43:51.830Z,20.07
2019-04-22T01:46:16.614Z,19.93
2019-04-22T01:48:57.789Z,20.47
2019-04-22T01:51:28.264Z,19.97
2019-04-22T01:53:58.519Z,21.30
2019-04-22T01:56:28.616Z,20.47
2019-04-22T01:58:50.329Z,20.50
2019-04-22T02:01:30.362Z,20.20
2019-04-22T02:04:02.717Z,19.87
2019-04-22T02:06:37.589Z,20.23
2019-04-22T02:09:10.655Z,19.87
2019-04-22T02:11:39.122Z,21.50
2019-04-22T02:14:09.209Z,21.07
2019-04-22T02:19:11.243Z,19.67
2019-04-22T02:21:35.768Z,19.87
2019-04-22T02:24:15.954Z,20.77
2019-04-22T02:26:41.699Z,21.07
2019-04-22T02:29:17.186Z,20.60
2019-04-22T02:31:55.874Z,21.03
2019-04-22T02:34:24.062Z,20.87
2019-04-22T02:36:54.336Z,20.77
2019-04-22T02:41:58.596Z,21.03
2019-04-22T02:44:28.782Z,21.03
2019-04-22T02:49:29.197Z,21.00
2019-04-22T02:52:06.406Z,21.97
2019-04-22T02:57:18.805Z,21.43
2019-04-22T02:59:43.283Z,21.67
2019-04-22T03:02:14.584Z,22.47
2019-04-22T03:04:37.409Z,21.60
2019-04-22T03:07:03.336Z,22.13
2019-04-22T03:09:38.350Z,22.07
2019-04-22T03:12:22.002Z,22.27
2019-04-22T03:17:25.540Z,22.80
2019-04-22T03:19:58.767Z,22.10
2019-04-22T03:27:37.109Z,24.37
2019-04-22T03:30:45.582Z,22.80
2019-04-22T03:37:50.358Z,22.80
2019-04-22T03:42:55.745Z,22.70
2019-04-22T03:48:01.912Z,22.90
2019-04-22T03:50:25.367Z,23.67
2019-04-22T03:53:05.924Z,23.27
2019-04-22T03:57:57.193Z,23.20
2019-04-22T04:08:15.129Z,22.83
2019-04-22T04:10:40.016Z,22.70
2019-04-22T04:13:21.103Z,23.97
2019-04-22T04:15:36.459Z,22.67
2019-04-22T04:18:13.303Z,23.37
2019-04-22T04:26:32.466Z,23.40
2019-04-22T04:31:02.008Z,23.87
2019-04-22T04:33:35.972Z,23.23
2019-04-22T04:36:14.624Z,24.83
2019-04-22T04:38:34.080Z,23.87
2019-04-22T04:41:06.278Z,23.73
2019-04-22T04:43:42.069Z,23.80
2019-04-22T04:46:09.388Z,24.53
2019-04-22T04:51:15.962Z,24.17
2019-04-22T04:53:53.096Z,23.50
2019-04-22T04:56:27.914Z,24.10
2019-04-22T04:58:55.841Z,25.03
2019-04-22T05:01:35.432Z,24.10
2019-04-22T05:03:59.401Z,25.63
2019-04-22T05:06:24.261Z,24.83
2019-04-22T05:11:24.946Z,26.23
2019-04-22T05:18:59.207Z,25.30
2019-04-22T05:21:33.079Z,25.00
2019-04-22T05:24:00.932Z,25.57
2019-04-22T05:26:30.997Z,25.60
2019-04-22T05:29:02.640Z,27.53
2019-04-22T05:31:32.614Z,27.43
2019-04-22T05:33:56.368Z,26.03
2019-04-22T05:36:30.017Z,26.13
2019-04-22T05:39:00.186Z,25.77
2019-04-22T05:41:36.452Z,24.80
2019-04-22T05:44:02.789Z,26.10
2019-04-22T05:46:34.777Z,26.07
2019-04-22T05:49:07.070Z,25.27
2019-04-22T05:51:42.017Z,26.70
2019-04-22T05:59:10.387Z,29.37
2019-04-22T06:01:51.775Z,28.10
2019-04-22T06:04:16.790Z,32.03
2019-04-22T06:06:51.624Z,32.57
2019-04-22T06:11:48.244Z,37.33
2019-04-22T06:14:20.397Z,38.27
2019-04-22T06:17:01.802Z,37.90
2019-04-22T06:19:24.499Z,38.90
2019-04-22T06:21:58.025Z,39.03
2019-04-22T06:24:50.720Z,39.27
2019-04-22T06:27:08.302Z,39.63
2019-04-22T06:29:30.135Z,37.87
2019-04-22T06:32:26.536Z,36.80
2019-04-22T06:37:13.034Z,37.83
2019-04-22T06:39:40.208Z,38.17
2019-04-22T06:42:13.418Z,38.03
2019-04-22T06:44:45.732Z,34.97
2019-04-22T06:47:28.674Z,37.40
2019-04-22T06:49:52.569Z,35.07
2019-04-22T06:52:17.740Z,34.83
2019-04-22T06:54:54.530Z,35.00
2019-04-22T06:57:19.465Z,34.07
2019-04-22T07:00:14.260Z,34.30
2019-04-22T07:02:33.809Z,32.00
2019-04-22T07:04:59.586Z,30.10
2019-04-22T07:07:25.182Z,29.60
2019-04-22T07:10:11.517Z,32.00
2019-04-22T07:12:30.474Z,31.77
2019-04-22T07:15:01.696Z,31.20
2019-04-22T07:17:39.431Z,31.20
2019-04-22T07:20:04.169Z,29.67
2019-04-22T07:22:38.919Z,30.67
2019-04-22T07:25:06.176Z,29.43
2019-04-22T07:27:44.127Z,28.63
2019-04-22T07:30:17.364Z,26.50
2019-04-22T07:33:04.819Z,27.43
2019-04-22T07:35:25.212Z,27.77
2019-04-22T07:37:47.093Z,24.97
2019-04-22T07:40:17.096Z,23.87
2019-04-22T07:42:52.098Z,26.50
2019-04-22T07:45:25.501Z,26.63
2019-04-22T07:50:37.427Z,24.73
2019-04-22T07:52:51.375Z,24.60
2019-04-22T07:55:27.241Z,24.43
2019-04-22T07:57:59.401Z,23.60
2019-04-22T08:00:34.087Z,24.20
2019-04-22T08:05:44.327Z,21.83
2019-04-22T08:08:13.050Z,22.07
2019-04-22T08:13:22.973Z,20.33
2019-04-22T08:18:17.490Z,21.43
2019-04-22T08:20:56.612Z,20.13
2019-04-22T08:23:23.754Z,21.03
2019-04-22T08:25:55.445Z,20.83
2019-04-22T08:28:31.747Z,20.80
2019-04-22T08:31:01.907Z,20.83
2019-04-22T08:33:38.191Z,19.77
2019-04-22T08:36:11.946Z,20.20
2019-04-22T08:38:46.955Z,19.10
2019-04-22T08:41:17.892Z,18.50
2019-04-22T08:43:55.865Z,15.53
2019-04-22T08:46:25.243Z,15.07
2019-04-22T08:48:52.985Z,15.43
2019-04-22T08:56:33.731Z,12.77
2019-04-22T08:59:07.061Z,11.83
2019-04-22T09:01:29.618Z,10.03
2019-04-22T09:04:00.605Z,9.47
2019-04-22T09:06:39.988Z,8.70
2019-04-22T09:09:02.083Z,8.30
2019-04-22T09:11:41.788Z,8.10
2019-04-22T09:16:37.365Z,8.90
2019-04-22T09:19:10.756Z,8.73
2019-04-22T09:21:43.346Z,9.87
2019-04-22T09:24:10.702Z,9.80
2019-04-22T09:26:44.502Z,9.47
2019-04-22T09:29:23.577Z,8.97
2019-04-22T09:31:49.769Z,7.00
2019-04-22T09:34:18.574Z,5.13
2019-04-22T09:36:50.265Z,4.30
2019-04-22T09:39:28.274Z,5.30
2019-04-22T09:41:52.111Z,5.00
2019-04-22T09:44:28.151Z,4.40
2019-04-22T09:46:51.999Z,4.80
2019-04-22T09:49:26.715Z,4.73
2019-04-22T09:52:01.473Z,4.80
2019-04-22T09:54:38.714Z,4.87
2019-04-22T09:57:01.584Z,5.73
2019-04-22T09:59:36.786Z,4.70
2019-04-22T10:02:19.728Z,4.77
2019-04-22T10:04:39.505Z,4.80
2019-04-22T10:07:13.068Z,4.50
2019-04-22T10:12:12.236Z,5.30
2019-04-22T10:14:45.121Z,5.43
2019-04-22T10:17:15.607Z,4.83
2019-04-22T10:19:41.062Z,6.00
2019-04-22T10:22:20.010Z,5.20
2019-04-22T10:24:45.388Z,5.30
2019-04-22T10:27:24.343Z,5.43
2019-04-22T10:29:54.174Z,5.30
2019-04-22T10:32:20.636Z,5.23
2019-04-22T10:34:38.772Z,4.93
2019-04-22T10:37:05.697Z,4.63
2019-04-22T10:39:43.861Z,5.07
2019-04-22T10:42:07.167Z,5.23
2019-04-22T10:44:37.375Z,4.97
2019-04-22T10:47:07.207Z,4.70
2019-04-22T10:49:38.236Z,5.87
2019-04-22T10:52:08.739Z,4.90
2019-04-22T10:54:38.647Z,4.63
2019-04-22T10:57:08.658Z,5.30
2019-04-22T10:59:38.561Z,4.93
2019-04-22T11:02:09.697Z,5.20
2019-04-22T11:04:40.436Z,4.80
2019-04-22T11:07:12.772Z,5.07
2019-04-22T11:09:51.689Z,5.13
2019-04-22T11:12:17.646Z,5.07
2019-04-22T11:14:45.515Z,4.77
2019-04-22T11:17:17.729Z,4.47
2019-04-22T11:19:47.945Z,5.00
2019-04-22T11:22:23.921Z,4.83
2019-04-22T11:24:50.692Z,4.57
2019-04-22T11:27:21.181Z,4.80
2019-04-22T11:29:50.907Z,4.50
2019-04-22T11:32:20.739Z,4.60
2019-04-22T11:34:51.213Z,4.87
2019-04-22T11:37:21.045Z,5.00
2019-04-22T11:40:04.875Z,4.43
2019-04-22T11:42:23.863Z,4.50
2019-04-22T11:44:55.127Z,4.80
2019-04-22T11:47:25.551Z,5.20
2019-04-22T11:49:55.556Z,5.13
2019-04-22T11:52:26.770Z,4.90
2019-04-22T11:54:57.008Z,4.83
2019-04-22T11:57:26.754Z,4.90
2019-04-22T11:59:56.619Z,4.40
2019-04-22T12:02:29.187Z,4.63
2019-04-22T12:04:58.972Z,5.10
2019-04-22T12:07:31.723Z,5.37
2019-04-22T12:10:13.271Z,4.73
2019-04-22T12:12:32.077Z,5.30
2019-04-22T12:15:02.039Z,5.10
2019-04-22T12:17:32.091Z,4.37
2019-04-22T12:20:05.063Z,4.20
2019-04-22T12:22:33.908Z,4.77
2019-04-22T12:25:10.565Z,4.40
2019-04-22T12:27:41.267Z,4.47
2019-04-22T12:30:19.584Z,4.63
2019-04-22T12:32:52.696Z,4.43
2019-04-22T12:35:24.203Z,4.47
2019-04-22T12:37:59.760Z,4.47
2019-04-22T12:40:37.268Z,4.40
2019-04-22T12:42:59.796Z,4.27
2019-04-22T12:45:30.117Z,4.43
2019-04-22T12:48:00.124Z,4.37
2019-04-22T12:50:34.907Z,4.30
2019-04-22T12:53:08.439Z,4.60
2019-04-22T12:55:34.361Z,4.43
2019-04-22T12:58:05.426Z,4.50
2019-04-22T13:00:36.324Z,5.27
2019-04-22T13:03:07.299Z,5.70
2019-04-22T13:05:37.572Z,5.00
2019-04-22T13:08:07.805Z,5.30
2019-04-22T13:10:45.772Z,5.20
2019-04-22T13:13:11.163Z,5.53
2019-04-22T13:15:41.370Z,4.90
2019-04-22T13:18:20.783Z,5.17
2019-04-22T13:20:44.299Z,4.37
2019-04-22T13:23:15.691Z,5.00
2019-04-22T13:25:47.143Z,5.17
2019-04-22T13:28:18.903Z,5.17
2019-04-22T13:30:50.917Z,5.30
2019-04-22T13:33:21.010Z,4.17
2019-04-22T13:35:52.131Z,4.77
2019-04-22T13:38:22.783Z,4.60
2019-04-22T13:41:12.496Z,4.37
2019-04-22T13:43:24.991Z,4.40
2019-04-22T13:45:56.050Z,4.30
2019-04-22T13:48:47.042Z,4.67
2019-04-22T13:54:29.997Z,4.50
2019-04-22T13:56:19.068Z,4.73
2019-04-22T13:58:45.874Z,4.90
2019-04-22T14:01:14.675Z,4.47
2019-04-22T14:04:04.816Z,4.67
2019-04-22T14:06:34.797Z,4.73
2019-04-22T14:09:07.467Z,4.60
2019-04-22T14:11:46.143Z,4.50
2019-04-22T14:14:09.225Z,4.60
2019-04-22T14:16:40.632Z,4.23
2019-04-22T14:19:11.907Z,4.23
2019-04-22T14:21:44.257Z,4.33
2019-04-22T14:24:14.336Z,4.80
2019-04-22T14:27:01.361Z,4.40
2019-04-22T14:29:17.500Z,4.40
2019-04-22T14:31:59.250Z,4.50
2019-04-22T14:34:20.901Z,4.57
2019-04-22T14:36:51.097Z,4.43
2019-04-22T14:39:21.987Z,4.17
2019-04-22T14:42:08.450Z,4.30
2019-04-22T14:45:16.906Z,4.87
2019-04-22T14:47:19.885Z,4.40
2019-04-22T14:49:48.188Z,3.80
2019-04-22T14:52:22.693Z,4.03
2019-04-22T14:54:41.292Z,3.80
2019-04-22T14:57:01.339Z,4.40
2019-04-22T14:59:32.566Z,4.40
2019-04-22T15:02:03.539Z,3.83
2019-04-22T15:04:33.440Z,4.33
2019-04-22T15:07:03.206Z,4.20
2019-04-22T15:09:34.187Z,4.23
2019-04-22T15:12:15.135Z,3.80
2019-04-22T15:14:35.647Z,3.37
2019-04-22T15:17:11.194Z,4.00
2019-04-22T15:19:43.799Z,3.80
2019-04-22T15:22:14.569Z,3.60
2019-04-22T15:24:45.024Z,3.27
2019-04-22T15:27:16.280Z,3.50
2019-04-22T15:29:47.250Z,3.90
2019-04-22T15:32:17.610Z,5.17
2019-04-22T15:34:48.879Z,4.70
2019-04-22T15:37:20.338Z,3.53
2019-04-22T15:39:50.176Z,3.10
2019-04-22T15:42:27.763Z,3.70
2019-04-22T15:44:51.721Z,3.37
2019-04-22T15:47:22.863Z,3.10
2019-04-22T15:49:53.969Z,3.20
2019-04-22T15:52:31.966Z,2.93
2019-04-22T15:54:56.363Z,3.17
2019-04-22T15:57:26.669Z,2.50
2019-04-22T16:00:13.131Z,2.77
2019-04-22T16:02:28.012Z,3.03
2019-04-22T16:04:58.857Z,2.80
2019-04-22T16:07:29.773Z,2.60
2019-04-22T16:09:59.825Z,3.07
2019-04-22T16:12:38.699Z,2.80
2019-04-22T16:15:03.188Z,2.63
2019-04-22T16:17:32.833Z,2.63
2019-04-22T16:20:03.690Z,2.60
2019-04-22T16:22:35.109Z,2.77
2019-04-22T16:25:25.015Z,2.73
2019-04-22T16:27:56.346Z,2.57
2019-04-22T16:30:27.688Z,2.67
2019-04-22T16:33:03.467Z,2.57
2019-04-22T16:35:34.954Z,2.67
2019-04-22T16:38:06.650Z,2.90
2019-04-22T16:40:36.808Z,2.80
2019-04-22T16:43:09.277Z,2.70
2019-04-22T16:45:38.161Z,2.40
2019-04-22T16:48:09.274Z,2.80
2019-04-22T16:50:42.841Z,2.53
2019-04-22T16:53:10.648Z,2.23
2019-04-22T16:55:41.044Z,2.40
2019-04-22T16:58:12.716Z,2.30
2019-04-22T17:00:43.128Z,2.50
2019-04-22T17:03:24.888Z,2.50
2019-04-22T17:06:09.830Z,2.40
2019-04-22T17:08:39.953Z,2.57
2019-04-22T17:11:09.953Z,2.73
2019-04-22T17:13:41.885Z,2.63
2019-04-22T17:16:11.948Z,2.53
2019-04-22T17:18:43.423Z,2.50
2019-04-22T17:21:14.662Z,2.57
2019-04-22T17:23:45.718Z,2.40
2019-04-22T17:26:16.741Z,2.33
2019-04-22T17:28:46.752Z,2.63
2019-04-22T17:31:16.596Z,2.50
2019-04-22T17:33:46.756Z,2.60
2019-04-22T17:36:18.206Z,2.53
2019-04-22T17:38:55.025Z,2.30
2019-04-22T17:41:30.262Z,2.40
2019-04-22T17:44:18.960Z,2.50
2019-04-22T17:46:40.270Z,2.47
2019-04-22T17:49:27.942Z,2.30
2019-04-22T17:52:10.802Z,2.60
2019-04-22T17:54:46.851Z,2.40
2019-04-22T17:57:09.972Z,2.27
2019-04-22T17:59:44.668Z,2.23
2019-04-22T18:02:16.741Z,2.23
2019-04-22T18:04:33.731Z,2.90
2019-04-22T18:07:24.834Z,2.70
2019-04-22T18:10:16.473Z,2.40
2019-04-22T18:12:34.017Z,2.30
2019-04-22T18:15:00.984Z,2.70
2019-04-22T18:17:30.572Z,2.63
2019-04-22T18:19:54.581Z,2.63
2019-04-22T18:22:21.842Z,3.00
2019-04-22T18:24:55.973Z,2.73
2019-04-22T18:30:00.017Z,2.70
2019-04-22T18:32:35.821Z,3.00
2019-04-22T18:35:07.257Z,2.80
2019-04-22T18:37:41.364Z,3.20
2019-04-22T18:40:11.705Z,2.93
2019-04-22T18:42:46.342Z,2.67
2019-04-22T18:45:29.674Z,2.77
2019-04-22T18:47:38.945Z,3.20
2019-04-22T18:50:22.015Z,2.90
2019-04-22T18:53:10.932Z,2.93
2019-04-22T18:55:35.205Z,2.90
2019-04-22T18:58:08.496Z,2.93
2019-04-22T19:00:41.844Z,2.80
2019-04-22T19:03:19.608Z,3.10
2019-04-22T19:06:11.791Z,2.73
2019-04-22T19:08:36.414Z,3.20
2019-04-22T19:11:20.980Z,2.97
2019-04-22T19:13:56.139Z,3.03
2019-04-22T19:16:25.784Z,2.70
2019-04-22T19:18:50.203Z,3.00
2019-04-22T19:21:14.955Z,2.70
2019-04-22T19:23:50.570Z,2.90
2019-04-22T19:26:32.421Z,2.60
2019-04-22T19:28:49.778Z,2.80
2019-04-22T19:31:24.664Z,3.00
2019-04-22T19:33:53.697Z,3.10
2019-04-22T19:36:26.116Z,2.93
2019-04-22T19:38:52.579Z,2.73
2019-04-22T19:41:29.214Z,3.30
2019-04-22T19:44:05.498Z,2.40
2019-04-22T19:46:28.679Z,2.93
2019-04-22T19:49:06.997Z,2.80
2019-04-22T19:51:57.295Z,2.77
2019-04-22T19:54:01.503Z,2.40
2019-04-22T19:56:28.231Z,2.73
2019-04-22T19:59:08.767Z,2.47
2019-04-22T20:01:54.179Z,2.60
2019-04-22T20:04:41.699Z,2.60
2019-04-22T20:07:08.399Z,2.80
2019-04-22T20:09:46.690Z,3.00
2019-04-22T20:12:15.140Z,2.20
2019-04-22T20:14:46.375Z,2.60
2019-04-22T20:17:19.834Z,2.53
2019-04-22T20:22:17.680Z,2.60
2019-04-22T20:24:44.792Z,2.50
2019-04-22T20:27:28.545Z,2.27
2019-04-22T20:30:13.218Z,2.30
2019-04-22T20:32:27.881Z,2.80
2019-04-22T20:35:02.972Z,2.40
2019-04-22T20:37:35.475Z,2.23
2019-04-22T20:40:00.502Z,2.50
2019-04-22T20:45:03.980Z,2.47
2019-04-22T20:47:30.633Z,2.37
2019-04-22T20:50:05.277Z,2.33
2019-04-22T20:52:50.519Z,2.40
2019-04-22T20:55:07.777Z,2.23
2019-04-22T20:57:48.450Z,2.10
2019-04-22T21:00:11.659Z,2.40
2019-04-22T21:02:37.640Z,2.03
2019-04-22T21:05:03.258Z,2.10
2019-04-22T21:07:52.967Z,2.50
2019-04-22T21:10:15.854Z,1.93
2019-04-22T21:12:39.995Z,2.17
2019-04-22T21:15:26.251Z,2.20
2019-04-22T21:17:53.793Z,2.33
2019-04-22T21:20:31.803Z,2.50
2019-04-22T21:22:56.259Z,2.23
2019-04-22T21:25:24.005Z,2.10
2019-04-22T21:28:04.862Z,2.20
2019-04-22T21:30:32.027Z,2.53
2019-04-22T21:32:58.238Z,2.30
2019-04-22T21:38:08.759Z,2.40
2019-04-22T21:40:39.498Z,2.50
2019-04-22T21:43:13.644Z,2.30
2019-04-22T21:45:37.628Z,2.00
2019-04-22T21:53:25.145Z,2.30
2019-04-22T21:56:03.957Z,2.03
2019-04-22T21:58:49.433Z,2.60
2019-04-22T22:01:29.137Z,2.33
2019-04-22T22:03:55.153Z,1.93
2019-04-22T22:06:16.617Z,2.47
2019-04-22T22:08:56.866Z,2.33
2019-04-22T22:11:26.054Z,1.97
2019-04-22T22:13:58.766Z,2.10
2019-04-22T22:16:23.352Z,2.47
2019-04-22T22:19:04.292Z,2.30
2019-04-22T22:21:43.901Z,1.87
2019-04-22T22:24:10.080Z,1.90
2019-04-22T22:26:40.702Z,1.70
2019-04-22T22:29:09.767Z,1.90
2019-04-22T22:31:40.243Z,2.07
2019-04-22T22:34:13.623Z,1.90
2019-04-22T22:36:36.868Z,2.00
2019-04-22T22:39:07.629Z,2.50
2019-04-22T22:41:23.972Z,1.80
2019-04-22T22:44:03.239Z,1.83
2019-04-22T22:46:34.173Z,2.20
2019-04-22T22:49:22.895Z,1.90
2019-04-22T22:52:11.691Z,1.57
2019-04-22T22:54:26.948Z,2.03
2019-04-22T22:59:30.006Z,1.73
2019-04-22T23:01:54.395Z,1.90
2019-04-22T23:04:37.273Z,1.73
2019-04-22T23:07:09.340Z,1.97
2019-04-22T23:09:30.712Z,2.00
2019-04-22T23:14:31.126Z,1.80
2019-04-22T23:16:52.875Z,2.03
2019-04-22T23:19:15.886Z,1.80
2019-04-22T23:21:49.470Z,1.63
2019-04-22T23:24:58.155Z,1.83
2019-04-22T23:27:34.591Z,1.70
2019-04-22T23:30:08.892Z,1.80
2019-04-22T23:32:42.651Z,2.10
2019-04-22T23:35:29.299Z,2.00
2019-04-22T23:37:59.613Z,2.10
2019-04-22T23:40:34.384Z,1.97
2019-04-22T23:43:09.421Z,1.80
2019-04-22T23:45:43.325Z,1.67
2019-04-22T23:48:05.841Z,1.80
2019-04-22T23:50:37.764Z,2.30
2019-04-22T23:53:31.626Z,1.90
2019-04-22T23:55:51.203Z,2.20
2019-04-22T23:58:34.950Z,1.93
